createdAt,value
2018-06-27T00:00:55.775Z,14.70
2018-06-27T00:03:23.711Z,14.70
2018-06-27T00:05:51.665Z,14.50
2018-06-27T00:08:19.509Z,14.40
2018-06-27T00:10:47.491Z,14.20
2018-06-27T00:13:15.348Z,14.10
2018-06-27T00:15:43.306Z,13.90
2018-06-27T00:18:11.177Z,13.80
2018-06-27T00:20:39.002Z,13.70
2018-06-27T00:23:06.860Z,13.60
2018-06-27T00:25:34.721Z,13.50
2018-06-27T00:28:02.670Z,13.40
2018-06-27T00:30:30.621Z,13.40
2018-06-27T00:32:58.515Z,13.30
2018-06-27T00:35:26.459Z,13.20
2018-06-27T00:37:54.319Z,13.10
2018-06-27T00:40:22.214Z,13.10
2018-06-27T00:42:50.139Z,13.00
2018-06-27T00:45:18.141Z,13.00
2018-06-27T00:47:46.049Z,13.00
2018-06-27T00:50:13.908Z,13.00
2018-06-27T00:52:41.790Z,12.90
2018-06-27T00:55:09.661Z,12.90
2018-06-27T00:57:37.517Z,12.90
2018-06-27T01:00:05.418Z,12.80
2018-06-27T01:02:33.257Z,12.80
2018-06-27T01:05:01.174Z,12.80
2018-06-27T01:07:40.600Z,12.80
2018-06-27T01:10:08.510Z,12.70
2018-06-27T01:12:36.426Z,12.70
2018-06-27T01:15:05.323Z,12.60
2018-06-27T01:17:33.194Z,12.60
2018-06-27T01:20:01.093Z,12.60
2018-06-27T01:22:29.004Z,12.60
2018-06-27T01:24:56.916Z,12.60
2018-06-27T01:27:24.865Z,12.70
2018-06-27T01:29:52.735Z,12.60
2018-06-27T01:32:20.603Z,12.70
2018-06-27T01:34:48.453Z,12.80
2018-06-27T01:37:16.349Z,12.80
2018-06-27T01:39:44.282Z,12.90
2018-06-27T01:42:12.139Z,12.90
2018-06-27T01:44:39.947Z,13.00
2018-06-27T01:47:07.837Z,13.10
2018-06-27T01:49:35.689Z,13.10
2018-06-27T01:52:03.602Z,13.20
2018-06-27T01:54:31.469Z,13.30
2018-06-27T01:56:59.397Z,13.40
2018-06-27T01:59:27.254Z,13.50
2018-06-27T02:01:55.133Z,13.50
2018-06-27T02:04:22.993Z,13.60
2018-06-27T02:06:50.821Z,13.60
2018-06-27T02:09:18.668Z,13.70
2018-06-27T02:11:46.761Z,13.70
2018-06-27T02:14:14.659Z,13.80
2018-06-27T02:16:42.590Z,13.90
2018-06-27T02:19:10.513Z,13.90
2018-06-27T02:21:38.393Z,13.90
2018-06-27T02:24:06.213Z,13.90
2018-06-27T02:26:34.095Z,13.90
2018-06-27T02:29:01.965Z,13.80
2018-06-27T02:31:29.933Z,13.80
2018-06-27T02:33:57.845Z,13.70
2018-06-27T02:38:53.596Z,13.50
2018-06-27T02:41:21.712Z,13.40
2018-06-27T02:43:49.667Z,13.40
2018-06-27T02:46:17.592Z,13.30
2018-06-27T02:48:45.414Z,13.30
2018-06-27T02:51:13.254Z,13.20
2018-06-27T02:53:41.109Z,13.20
2018-06-27T02:56:10.525Z,13.20
2018-06-27T02:58:38.443Z,13.20
2018-06-27T03:01:06.527Z,13.10
2018-06-27T03:03:34.317Z,13.00
2018-06-27T03:06:02.225Z,12.90
2018-06-27T03:08:30.143Z,12.90
2018-06-27T03:10:58.027Z,12.80
2018-06-27T03:13:25.917Z,12.80
2018-06-27T03:15:56.709Z,12.70
2018-06-27T03:18:24.659Z,12.70
2018-06-27T03:20:52.521Z,12.70
2018-06-27T03:23:20.537Z,12.60
2018-06-27T03:25:48.419Z,12.60
2018-06-27T03:28:16.341Z,12.60
2018-06-27T03:30:44.246Z,12.60
2018-06-27T03:33:12.145Z,12.70
2018-06-27T03:35:40.007Z,12.70
2018-06-27T03:38:07.941Z,12.80
2018-06-27T03:40:35.820Z,12.90
2018-06-27T03:43:03.706Z,12.90
2018-06-27T03:45:31.555Z,13.00
2018-06-27T03:47:59.501Z,13.00
2018-06-27T03:50:27.418Z,13.00
2018-06-27T03:52:55.301Z,13.00
2018-06-27T03:55:23.169Z,13.00
2018-06-27T03:57:51.107Z,13.00
2018-06-27T04:00:19.024Z,13.00
2018-06-27T04:02:46.856Z,13.00
2018-06-27T04:05:14.675Z,13.10
2018-06-27T04:07:42.607Z,13.20
2018-06-27T04:10:11.333Z,13.40
2018-06-27T04:12:39.462Z,13.50
2018-06-27T04:15:07.843Z,13.60
2018-06-27T04:17:35.743Z,13.60
2018-06-27T04:20:03.670Z,13.70
2018-06-27T04:22:33.154Z,13.80
2018-06-27T04:25:01.400Z,13.80
2018-06-27T04:27:30.313Z,13.90
2018-06-27T04:29:58.777Z,14.00
2018-06-27T04:32:27.302Z,14.10
2018-06-27T04:34:55.626Z,14.30
2018-06-27T04:39:51.869Z,14.90
2018-06-27T04:42:19.825Z,15.30
2018-06-27T04:44:47.723Z,15.60
2018-06-27T04:47:15.643Z,15.80
2018-06-27T04:49:43.554Z,16.10
2018-06-27T04:52:11.403Z,16.60
2018-06-27T04:54:39.235Z,18.10
2018-06-27T04:57:07.164Z,21.40
2018-06-27T04:59:34.969Z,24.40
2018-06-27T05:02:02.947Z,26.70
2018-06-27T05:04:30.850Z,28.50
2018-06-27T05:06:58.760Z,29.90
2018-06-27T05:09:26.665Z,31.00
2018-06-27T05:11:54.613Z,32.00
2018-06-27T05:14:22.618Z,32.90
2018-06-27T05:16:50.548Z,33.60
2018-06-27T05:19:18.346Z,34.20
2018-06-27T05:21:46.280Z,34.50
2018-06-27T05:24:14.036Z,34.70
2018-06-27T05:26:41.937Z,34.80
2018-06-27T05:29:09.853Z,35.20
2018-06-27T05:31:37.702Z,35.50
2018-06-27T05:34:06.020Z,35.70
2018-06-27T05:36:34.019Z,35.60
2018-06-27T05:39:02.099Z,34.10
2018-06-27T05:41:30.041Z,32.70
2018-06-27T05:43:57.985Z,31.30
2018-06-27T05:46:25.921Z,29.90
2018-06-27T05:48:54.243Z,30.00
2018-06-27T06:00:21.745Z,36.90
2018-06-27T06:02:49.616Z,37.50
2018-06-27T06:05:17.447Z,37.70
2018-06-27T06:07:45.271Z,37.90
2018-06-27T06:10:13.085Z,37.90
2018-06-27T06:12:40.876Z,37.90
2018-06-27T06:15:08.729Z,37.80
2018-06-27T06:17:36.557Z,38.00
2018-06-27T06:20:04.313Z,37.90
2018-06-27T06:22:32.115Z,37.80
2018-06-27T06:24:59.933Z,37.40
2018-06-27T06:27:27.787Z,37.10
2018-06-27T06:29:55.670Z,37.30
2018-06-27T06:32:23.509Z,37.60
2018-06-27T06:34:51.309Z,37.50
2018-06-27T06:37:19.109Z,37.60
2018-06-27T06:39:46.940Z,37.60
2018-06-27T06:42:14.755Z,37.80
2018-06-27T06:44:42.628Z,37.40
2018-06-27T06:47:10.419Z,37.10
2018-06-27T06:49:38.237Z,36.80
2018-06-27T06:54:34.071Z,36.80
2018-06-27T06:57:02.145Z,36.70
2018-06-27T06:59:30.070Z,36.40
2018-06-27T07:01:57.909Z,35.90
2018-06-27T07:04:25.753Z,35.50
2018-06-27T07:09:21.486Z,35.90
2018-06-27T07:11:49.357Z,35.70
2018-06-27T07:14:17.211Z,35.50
2018-06-27T07:16:45.101Z,35.60
2018-06-27T07:19:12.950Z,35.70
2018-06-27T07:21:40.737Z,35.40
2018-06-27T07:24:08.606Z,35.20
2018-06-27T07:26:36.479Z,34.50
2018-06-27T07:29:04.377Z,34.70
2018-06-27T07:31:32.588Z,35.10
2018-06-27T07:34:00.534Z,35.20
2018-06-27T07:36:28.517Z,34.10
2018-06-27T07:38:56.358Z,32.70
2018-06-27T07:41:24.227Z,32.80
2018-06-27T07:43:52.164Z,32.70
2018-06-27T07:46:20.013Z,31.40
2018-06-27T07:48:47.886Z,31.90
2018-06-27T07:51:15.815Z,32.50
2018-06-27T07:53:43.642Z,33.20
2018-06-27T07:56:11.533Z,33.50
2018-06-27T07:58:39.440Z,32.40
2018-06-27T08:01:07.260Z,31.10
2018-06-27T08:03:35.050Z,29.60
2018-06-27T08:06:02.891Z,28.40
2018-06-27T08:08:30.765Z,28.50
2018-06-27T08:10:58.623Z,29.20
2018-06-27T08:13:26.440Z,29.90
2018-06-27T08:15:54.402Z,30.90
2018-06-27T08:18:22.349Z,31.20
2018-06-27T08:20:50.184Z,31.00
2018-06-27T08:23:18.091Z,30.90
2018-06-27T08:25:51.801Z,31.10
2018-06-27T08:28:21.123Z,31.10
2018-06-27T08:30:48.960Z,31.10
2018-06-27T08:33:16.876Z,31.00
2018-06-27T08:35:44.964Z,31.00
2018-06-27T08:38:12.896Z,31.00
2018-06-27T08:40:40.869Z,31.10
2018-06-27T08:43:08.771Z,31.30
2018-06-27T08:45:36.672Z,31.50
2018-06-27T08:48:05.425Z,31.20
2018-06-27T08:50:33.226Z,31.20
2018-06-27T08:53:01.120Z,31.60
2018-06-27T08:55:29.009Z,32.00
2018-06-27T08:57:56.810Z,32.00
2018-06-27T09:00:24.668Z,32.20
2018-06-27T09:02:52.588Z,33.00
2018-06-27T09:05:20.520Z,33.40
2018-06-27T09:07:48.428Z,33.40
2018-06-27T09:10:16.297Z,33.20
2018-06-27T09:12:44.115Z,32.70
2018-06-27T09:15:11.997Z,32.40
2018-06-27T09:17:39.858Z,32.60
2018-06-27T09:20:07.860Z,33.00
2018-06-27T09:22:35.694Z,33.20
2018-06-27T09:25:03.584Z,33.40
2018-06-27T09:27:31.517Z,33.60
2018-06-27T09:29:59.406Z,33.70
2018-06-27T09:32:27.216Z,34.10
2018-06-27T09:34:55.117Z,34.00
2018-06-27T09:37:22.959Z,33.80
2018-06-27T09:40:20.406Z,33.60
2018-06-27T09:43:18.375Z,32.90
2018-06-27T09:45:46.299Z,32.00
2018-06-27T09:48:14.216Z,30.80
2018-06-27T09:50:42.078Z,29.90
2018-06-27T09:53:17.495Z,29.90
2018-06-27T09:55:45.431Z,29.70
2018-06-27T09:58:13.269Z,29.20
2018-06-27T10:00:44.271Z,28.70
2018-06-27T10:03:12.128Z,28.80
2018-06-27T10:05:40.133Z,28.80
2018-06-27T10:08:35.901Z,29.40
2018-06-27T10:11:03.721Z,29.10
2018-06-27T10:13:31.630Z,29.00
2018-06-27T10:15:59.538Z,28.40
2018-06-27T10:18:27.367Z,27.90
2018-06-27T10:20:55.158Z,28.10
2018-06-27T10:23:41.462Z,29.10
2018-06-27T10:26:09.345Z,30.20
2018-06-27T10:28:37.881Z,31.20
2018-06-27T10:31:05.913Z,32.00
2018-06-27T10:36:01.617Z,30.60
2018-06-27T10:38:29.417Z,29.70
2018-06-27T10:40:57.354Z,29.00
2018-06-27T10:43:25.357Z,28.30
2018-06-27T10:48:21.092Z,28.20
2018-06-27T10:50:48.930Z,29.50
2018-06-27T10:53:16.782Z,30.20
2018-06-27T10:55:44.709Z,30.50
2018-06-27T10:58:12.529Z,30.30
2018-06-27T11:00:40.407Z,29.80
2018-06-27T11:03:08.239Z,29.20
2018-06-27T11:05:35.968Z,28.90
2018-06-27T11:08:03.994Z,28.80
2018-06-27T11:10:31.823Z,29.70
2018-06-27T11:12:59.753Z,30.20
2018-06-27T11:15:27.627Z,30.30
2018-06-27T11:18:02.189Z,29.80
2018-06-27T11:20:30.118Z,29.10
2018-06-27T11:22:57.903Z,28.30
2018-06-27T11:25:25.672Z,27.80
2018-06-27T11:27:53.614Z,28.20
2018-06-27T11:32:49.334Z,30.30
2018-06-27T11:35:17.151Z,30.20
2018-06-27T11:37:44.942Z,29.50
2018-06-27T11:40:12.760Z,29.10
2018-06-27T11:42:40.626Z,28.60
2018-06-27T11:45:08.481Z,28.40
2018-06-27T11:47:36.377Z,28.30
2018-06-27T11:50:04.230Z,28.30
2018-06-27T11:52:32.108Z,28.10
2018-06-27T11:55:05.944Z,27.80
2018-06-27T11:57:33.793Z,27.70
2018-06-27T12:00:01.687Z,28.10
2018-06-27T12:02:29.638Z,28.60
2018-06-27T12:04:57.609Z,29.20
2018-06-27T12:07:25.617Z,29.50
2018-06-27T12:09:53.456Z,29.50
2018-06-27T12:12:21.396Z,29.60
2018-06-27T12:14:49.230Z,29.50
2018-06-27T12:17:17.062Z,29.30
2018-06-27T12:19:44.874Z,29.00
2018-06-27T12:24:50.777Z,28.80
2018-06-27T12:27:18.897Z,28.90
2018-06-27T12:29:46.908Z,29.00
2018-06-27T12:32:14.808Z,29.00
2018-06-27T12:34:42.672Z,29.10
2018-06-27T12:37:10.625Z,29.90
2018-06-27T12:39:38.516Z,30.90
2018-06-27T12:42:06.521Z,31.80
2018-06-27T12:44:34.465Z,32.00
2018-06-27T12:47:02.471Z,32.00
2018-06-27T12:49:30.583Z,32.00
2018-06-27T12:51:58.488Z,31.80
2018-06-27T12:54:26.721Z,31.20
2018-06-27T12:56:54.686Z,30.80
2018-06-27T12:59:22.580Z,30.90
2018-06-27T13:01:50.980Z,31.50
2018-06-27T13:04:18.934Z,31.90
2018-06-27T13:06:46.843Z,32.10
2018-06-27T13:09:14.857Z,32.10
2018-06-27T13:14:20.856Z,32.90
2018-06-27T13:16:48.864Z,33.10
2018-06-27T13:19:16.786Z,32.90
2018-06-27T13:21:44.696Z,32.90
2018-06-27T13:24:12.543Z,33.00
2018-06-27T13:26:40.478Z,32.90
2018-06-27T13:29:08.344Z,32.90
2018-06-27T13:31:36.230Z,33.10
2018-06-27T13:34:04.138Z,33.30
2018-06-27T13:36:31.960Z,33.40
2018-06-27T13:38:59.908Z,33.70
2018-06-27T13:41:27.747Z,33.80
2018-06-27T13:43:55.606Z,33.70
2018-06-27T13:46:23.572Z,32.90
2018-06-27T13:48:51.451Z,32.60
2018-06-27T13:51:22.790Z,33.00
2018-06-27T13:53:50.721Z,33.40
2018-06-27T13:56:18.644Z,33.60
2018-06-27T13:58:46.548Z,33.90
2018-06-27T14:01:14.480Z,34.10
2018-06-27T14:03:42.304Z,33.40
2018-06-27T14:06:10.254Z,32.20
2018-06-27T14:08:38.198Z,31.50
2018-06-27T14:11:06.106Z,31.40
2018-06-27T14:13:34.057Z,31.80
2018-06-27T14:16:02.049Z,32.30
2018-06-27T14:18:30.013Z,32.40
2018-06-27T14:20:57.819Z,32.70
2018-06-27T14:23:25.690Z,32.80
2018-06-27T14:25:53.581Z,33.10
2018-06-27T14:28:21.464Z,33.40
2018-06-27T14:30:49.322Z,33.30
2018-06-27T14:33:17.213Z,33.20
2018-06-27T14:35:45.083Z,33.80
2018-06-27T14:40:40.849Z,34.50
2018-06-27T14:43:08.798Z,33.70
2018-06-27T14:45:36.682Z,32.40
2018-06-27T14:48:04.615Z,31.40
2018-06-27T14:50:32.391Z,30.60
2018-06-27T14:53:00.222Z,29.90
2018-06-27T14:55:28.045Z,29.50
2018-06-27T14:57:55.931Z,29.20
2018-06-27T15:00:23.738Z,29.00
2018-06-27T15:02:51.628Z,29.00
2018-06-27T15:05:19.405Z,28.90
2018-06-27T15:07:47.180Z,28.90
2018-06-27T15:10:14.985Z,28.80
2018-06-27T15:12:42.784Z,28.70
2018-06-27T15:15:10.593Z,28.50
2018-06-27T15:17:38.424Z,28.50
2018-06-27T15:20:06.354Z,28.40
2018-06-27T15:22:34.238Z,28.10
2018-06-27T15:25:02.130Z,27.80
2018-06-27T15:27:30.032Z,27.60
2018-06-27T15:29:57.995Z,27.50
2018-06-27T15:32:25.853Z,27.50
2018-06-27T15:34:53.766Z,27.50
2018-06-27T15:37:21.699Z,27.60
2018-06-27T15:39:49.550Z,27.70
2018-06-27T15:42:17.439Z,27.70
2018-06-27T15:44:45.267Z,28.00
2018-06-27T15:47:13.200Z,28.40
2018-06-27T15:49:40.964Z,28.50
2018-06-27T15:52:08.831Z,28.40
2018-06-27T15:54:36.666Z,28.10
2018-06-27T15:57:04.599Z,28.00
2018-06-27T15:59:32.434Z,28.10
2018-06-27T16:02:00.341Z,28.00
2018-06-27T16:04:28.138Z,27.80
2018-06-27T16:06:55.944Z,28.00
2018-06-27T16:09:23.770Z,28.30
2018-06-27T16:11:51.604Z,28.60
2018-06-27T16:14:19.535Z,28.80
2018-06-27T16:19:15.272Z,29.00
2018-06-27T16:21:43.079Z,29.00
2018-06-27T16:24:23.728Z,29.00
2018-06-27T16:26:51.612Z,29.20
2018-06-27T16:29:19.374Z,29.30
2018-06-27T16:31:47.230Z,29.30
2018-06-27T16:34:15.169Z,29.20
2018-06-27T16:36:43.002Z,29.00
2018-06-27T16:39:11.051Z,29.00
2018-06-27T16:41:39.020Z,29.00
2018-06-27T16:44:06.937Z,29.00
2018-06-27T16:46:34.958Z,28.90
2018-06-27T16:49:02.907Z,28.70
2018-06-27T16:51:30.988Z,28.40
2018-06-27T16:53:58.549Z,28.30
2018-06-27T16:56:26.380Z,28.20
2018-06-27T16:58:54.320Z,28.00
2018-06-27T17:01:22.340Z,27.80
2018-06-27T17:03:49.917Z,27.60
2018-06-27T17:06:17.760Z,27.40
2018-06-27T17:08:45.636Z,27.30
2018-06-27T17:11:13.523Z,27.10
2018-06-27T17:13:41.377Z,26.90
2018-06-27T17:16:09.200Z,26.80
2018-06-27T17:18:37.138Z,26.70
2018-06-27T17:21:04.969Z,26.50
2018-06-27T17:23:33.067Z,26.50
2018-06-27T17:26:00.987Z,26.50
2018-06-27T17:28:28.899Z,26.30
2018-06-27T17:30:56.725Z,26.20
2018-06-27T17:33:24.530Z,26.10
2018-06-27T17:35:52.368Z,26.20
2018-06-27T17:38:20.257Z,26.30
2018-06-27T17:40:48.097Z,26.20
2018-06-27T17:43:15.979Z,26.20
2018-06-27T17:45:43.830Z,26.20
2018-06-27T17:48:11.842Z,26.30
2018-06-27T17:50:39.704Z,26.20
2018-06-27T17:53:07.634Z,26.20
2018-06-27T17:55:35.556Z,26.20
2018-06-27T17:58:03.681Z,26.30
2018-06-27T18:00:31.491Z,26.30
2018-06-27T18:02:59.325Z,26.30
2018-06-27T18:05:27.141Z,26.30
2018-06-27T18:07:55.091Z,26.30
2018-06-27T18:10:22.939Z,26.30
2018-06-27T18:12:51.101Z,26.30
2018-06-27T18:15:18.985Z,26.20
2018-06-27T18:17:46.837Z,26.20
2018-06-27T18:20:14.750Z,26.10
2018-06-27T18:22:42.593Z,26.00
2018-06-27T18:25:10.501Z,25.90
2018-06-27T18:27:38.309Z,25.80
2018-06-27T18:30:06.987Z,25.60
2018-06-27T18:32:34.854Z,25.40
2018-06-27T18:35:02.658Z,25.20
2018-06-27T18:37:30.506Z,25.00
2018-06-27T18:39:58.493Z,24.70
2018-06-27T18:42:38.504Z,24.50
2018-06-27T18:45:07.140Z,24.20
2018-06-27T18:47:35.081Z,23.90
2018-06-27T18:50:03.039Z,23.70
2018-06-27T18:52:30.968Z,23.50
2018-06-27T18:54:58.815Z,23.30
2018-06-27T18:57:26.675Z,23.00
2018-06-27T18:59:54.605Z,22.80
2018-06-27T19:02:22.471Z,22.60
2018-06-27T19:04:50.315Z,22.40
2018-06-27T19:07:18.121Z,22.20
2018-06-27T19:09:46.036Z,21.90
2018-06-27T19:12:13.964Z,21.60
2018-06-27T19:14:41.865Z,21.40
2018-06-27T19:17:09.711Z,21.10
2018-06-27T19:19:37.661Z,20.90
2018-06-27T19:22:05.630Z,20.70
2018-06-27T19:24:33.496Z,20.50
2018-06-27T19:27:01.456Z,20.30
2018-06-27T19:29:29.468Z,20.20
2018-06-27T19:31:57.337Z,20.10
2018-06-27T19:34:25.172Z,19.90
2018-06-27T19:36:53.003Z,19.80
2018-06-27T19:39:20.880Z,19.60
2018-06-27T19:41:48.633Z,19.50
2018-06-27T19:44:16.559Z,19.30
2018-06-27T19:46:44.444Z,19.20
2018-06-27T19:49:12.318Z,19.00
2018-06-27T19:51:40.164Z,18.90
2018-06-27T19:54:08.070Z,18.80
2018-06-27T19:56:35.918Z,18.70
2018-06-27T19:59:04.046Z,18.60
2018-06-27T20:01:32.051Z,18.50
2018-06-27T20:08:55.898Z,18.30
2018-06-27T20:11:23.940Z,18.20
2018-06-27T20:13:51.873Z,18.20
2018-06-27T20:16:19.729Z,18.10
2018-06-27T20:18:47.571Z,18.10
2018-06-27T20:21:15.505Z,18.10
2018-06-27T20:26:11.267Z,18.00
2018-06-27T20:28:39.261Z,18.00
2018-06-27T20:31:07.234Z,18.10
2018-06-27T20:33:35.022Z,18.10
2018-06-27T20:36:03.000Z,18.10
2018-06-27T20:38:30.940Z,18.20
2018-06-27T20:40:58.813Z,18.20
2018-06-27T20:43:26.733Z,18.20
2018-06-27T20:45:54.625Z,18.30
2018-06-27T20:48:22.468Z,18.30
2018-06-27T20:50:50.348Z,18.30
2018-06-27T20:53:18.284Z,18.30
2018-06-27T20:55:46.223Z,18.30
2018-06-27T20:58:14.199Z,18.30
2018-06-27T21:00:42.145Z,18.30
2018-06-27T21:03:10.098Z,18.30
2018-06-27T21:05:37.982Z,18.30
2018-06-27T21:08:05.848Z,18.30
2018-06-27T21:10:33.911Z,18.30
2018-06-27T21:13:01.790Z,18.40
2018-06-27T21:15:29.775Z,18.40
2018-06-27T21:17:57.612Z,18.40
2018-06-27T21:20:25.530Z,18.40
2018-06-27T21:22:53.395Z,18.40
2018-06-27T21:25:21.375Z,18.40
2018-06-27T21:28:06.817Z,18.40
2018-06-27T21:30:35.923Z,18.40
2018-06-27T21:33:03.805Z,18.30
2018-06-27T21:35:45.128Z,18.20
2018-06-27T21:47:41.242Z,18.20
2018-06-27T21:50:09.073Z,18.20
2018-06-27T21:52:36.937Z,18.10
2018-06-27T21:55:05.315Z,18.20
2018-06-27T21:57:33.161Z,18.20
2018-06-27T22:00:01.083Z,18.20
2018-06-27T22:02:29.008Z,18.20
2018-06-27T22:04:57.998Z,18.20
2018-06-27T22:07:25.902Z,18.20
2018-06-27T22:18:58.128Z,18.20
2018-06-27T22:21:27.065Z,18.20
2018-06-27T22:23:55.232Z,18.20
2018-06-27T22:26:23.550Z,18.20
2018-06-27T22:28:51.421Z,18.20
2018-06-27T22:31:19.309Z,18.20
2018-06-27T22:33:47.227Z,18.20
2018-06-27T22:36:15.351Z,18.20
2018-06-27T22:38:43.194Z,18.20
2018-06-27T22:41:11.094Z,18.20
2018-06-27T22:43:39.004Z,18.20
2018-06-27T22:46:06.909Z,18.10
2018-06-27T22:48:34.718Z,18.10
2018-06-27T22:51:02.673Z,18.10
2018-06-27T22:53:30.567Z,18.00
2018-06-27T22:55:58.373Z,17.90
2018-06-27T22:58:26.300Z,17.80
2018-06-27T23:00:54.258Z,17.80
2018-06-27T23:03:22.104Z,17.80
2018-06-27T23:05:49.978Z,17.70
2018-06-27T23:08:17.954Z,17.60
2018-06-27T23:10:45.850Z,17.60
2018-06-27T23:13:13.736Z,17.50
2018-06-27T23:15:41.643Z,17.40
2018-06-27T23:18:09.567Z,17.30
2018-06-27T23:20:37.471Z,17.20
2018-06-27T23:23:05.393Z,17.20
2018-06-27T23:25:33.299Z,17.10
2018-06-27T23:28:01.186Z,17.00
2018-06-27T23:30:29.087Z,16.90
2018-06-27T23:32:56.987Z,16.90
2018-06-27T23:35:24.884Z,16.80
2018-06-27T23:37:52.758Z,16.80
2018-06-27T23:40:20.674Z,16.70
2018-06-27T23:42:48.562Z,16.70
2018-06-27T23:45:16.440Z,16.70
2018-06-27T23:47:44.331Z,16.60
2018-06-27T23:50:13.137Z,16.50
2018-06-27T23:52:40.937Z,16.40
2018-06-27T23:55:08.897Z,16.30
2018-06-27T23:57:36.828Z,16.20
